createdAt,value
2023-05-08T00:02:21.057Z,18.77
2023-05-08T00:05:07.273Z,18.79
2023-05-08T00:07:53.769Z,18.73
2023-05-08T00:10:39.677Z,18.69
2023-05-08T00:13:25.588Z,18.67
2023-05-08T00:16:12.771Z,18.62
2023-05-08T00:18:59.812Z,18.53
2023-05-08T00:21:45.886Z,18.49
2023-05-08T00:24:38.599Z,18.43
2023-05-08T00:27:24.461Z,18.39
2023-05-08T00:30:11.208Z,18.40
2023-05-08T00:32:57.682Z,18.36
2023-05-08T00:35:43.472Z,18.39
2023-05-08T00:38:36.061Z,18.42
2023-05-08T00:41:21.907Z,18.42
2023-05-08T00:44:08.453Z,18.42
2023-05-08T00:46:54.385Z,18.46
2023-05-08T00:49:40.554Z,18.46
2023-05-08T00:52:28.561Z,18.44
2023-05-08T00:55:14.406Z,18.43
2023-05-08T00:58:00.453Z,18.42
2023-05-08T01:00:47.162Z,18.35
2023-05-08T01:03:36.022Z,18.32
2023-05-08T01:06:22.106Z,18.27
2023-05-08T01:09:08.707Z,18.24
2023-05-08T01:12:18.415Z,18.22
2023-05-08T01:15:36.444Z,18.17
2023-05-08T01:18:59.864Z,18.15
2023-05-08T01:21:57.453Z,18.08
2023-05-08T01:25:32.217Z,18.02
2023-05-08T01:28:48.015Z,17.94
2023-05-08T01:32:10.774Z,17.89
2023-05-08T01:35:42.698Z,17.87
2023-05-08T01:39:11.015Z,17.86
2023-05-08T01:42:16.044Z,17.88
2023-05-08T01:45:05.760Z,17.89
2023-05-08T01:48:06.777Z,17.90
2023-05-08T01:51:01.433Z,17.90
2023-05-08T01:54:05.947Z,17.90
2023-05-08T01:56:55.603Z,17.93
2023-05-08T01:59:42.451Z,17.93
2023-05-08T02:02:31.641Z,17.94
2023-05-08T02:05:18.888Z,17.89
2023-05-08T02:08:08.597Z,17.89
2023-05-08T02:10:56.484Z,17.93
2023-05-08T02:13:44.828Z,17.90
2023-05-08T02:16:31.844Z,17.90
2023-05-08T02:19:19.614Z,17.91
2023-05-08T02:22:06.184Z,17.87
2023-05-08T02:24:55.731Z,17.85
2023-05-08T02:27:47.705Z,17.80
2023-05-08T02:30:34.091Z,17.77
2023-05-08T02:33:20.913Z,17.73
2023-05-08T02:36:08.040Z,17.67
2023-05-08T02:38:54.528Z,17.62
2023-05-08T02:41:42.517Z,17.59
2023-05-08T02:44:28.954Z,17.62
2023-05-08T02:48:15.949Z,17.60
2023-05-08T02:51:25.184Z,17.63
2023-05-08T02:54:16.488Z,17.65
2023-05-08T02:57:15.742Z,17.67
2023-05-08T03:00:08.328Z,17.70
2023-05-08T03:03:01.001Z,17.70
2023-05-08T03:05:53.728Z,17.74
2023-05-08T03:08:45.764Z,17.77
2023-05-08T03:11:39.018Z,17.77
2023-05-08T03:14:30.469Z,17.79
2023-05-08T03:17:17.400Z,17.80
2023-05-08T03:20:06.187Z,17.82
2023-05-08T03:22:53.992Z,17.81
2023-05-08T03:25:50.996Z,17.80
2023-05-08T03:28:37.278Z,17.84
2023-05-08T03:31:24.083Z,17.80
2023-05-08T03:34:12.705Z,17.81
2023-05-08T03:36:59.111Z,17.76
2023-05-08T03:39:45.278Z,17.75
2023-05-08T03:42:31.428Z,17.74
2023-05-08T03:45:18.625Z,17.74
2023-05-08T03:48:05.815Z,17.72
2023-05-08T03:50:53.782Z,17.69
2023-05-08T03:53:39.785Z,17.67
2023-05-08T03:56:26.193Z,17.66
2023-05-08T03:59:42.630Z,17.71
2023-05-08T04:02:42.294Z,17.70
2023-05-08T04:05:37.850Z,17.69
2023-05-08T04:08:33.764Z,17.66
2023-05-08T04:11:44.652Z,17.65
2023-05-08T04:14:36.064Z,17.66
2023-05-08T04:17:59.520Z,17.65
2023-05-08T04:20:51.929Z,17.64
2023-05-08T04:23:40.721Z,17.62
2023-05-08T04:26:27.341Z,17.55
2023-05-08T04:29:14.817Z,17.55
2023-05-08T04:32:01.604Z,17.58
2023-05-08T04:34:47.873Z,17.57
2023-05-08T04:37:33.754Z,17.63
2023-05-08T04:40:21.748Z,17.62
2023-05-08T04:43:08.107Z,17.65
2023-05-08T04:45:54.220Z,17.67
2023-05-08T04:48:40.066Z,17.66
2023-05-08T04:51:26.457Z,17.72
2023-05-08T04:54:12.723Z,17.76
2023-05-08T04:56:59.061Z,17.78
2023-05-08T04:59:45.348Z,17.79
2023-05-08T05:02:31.432Z,17.79
2023-05-08T05:05:17.862Z,17.82
2023-05-08T05:08:04.394Z,17.83
2023-05-08T05:10:50.651Z,17.88
2023-05-08T05:13:36.492Z,17.89
2023-05-08T05:16:23.851Z,17.89
2023-05-08T05:19:10.161Z,17.90
2023-05-08T05:21:56.677Z,17.93
2023-05-08T05:24:42.850Z,17.98
2023-05-08T05:27:28.783Z,17.97
2023-05-08T05:30:15.385Z,18.02
2023-05-08T05:33:01.975Z,18.02
2023-05-08T05:35:48.469Z,18.06
2023-05-08T05:38:34.511Z,18.14
2023-05-08T05:41:20.357Z,18.15
2023-05-08T05:44:06.812Z,18.17
2023-05-08T05:46:52.788Z,18.22
2023-05-08T05:49:39.966Z,18.27
2023-05-08T05:52:26.894Z,18.29
2023-05-08T05:55:13.270Z,18.33
2023-05-08T05:58:03.189Z,18.36
2023-05-08T06:00:49.939Z,18.40
2023-05-08T06:03:35.822Z,18.37
2023-05-08T06:06:23.130Z,18.40
2023-05-08T06:09:09.289Z,18.46
2023-05-08T06:11:55.544Z,18.51
2023-05-08T06:14:41.642Z,18.54
2023-05-08T06:17:29.480Z,18.59
2023-05-08T06:20:16.863Z,18.65
2023-05-08T06:23:02.826Z,18.71
2023-05-08T06:25:49.566Z,18.76
2023-05-08T06:28:35.622Z,18.82
2023-05-08T06:31:21.808Z,18.86
2023-05-08T06:34:08.141Z,18.95
2023-05-08T06:36:54.171Z,19.02
2023-05-08T06:39:39.981Z,19.06
2023-05-08T06:42:26.202Z,19.11
2023-05-08T06:45:12.653Z,19.16
2023-05-08T06:47:58.814Z,19.22
2023-05-08T06:50:44.820Z,19.28
2023-05-08T06:53:31.162Z,19.31
2023-05-08T06:56:16.991Z,19.39
2023-05-08T06:59:08.320Z,19.39
2023-05-08T07:01:54.895Z,19.43
2023-05-08T07:04:40.768Z,19.46
2023-05-08T07:07:26.833Z,19.51
2023-05-08T07:10:12.864Z,19.55
2023-05-08T07:12:58.780Z,19.51
2023-05-08T07:15:44.938Z,19.61
2023-05-08T07:18:30.755Z,19.63
2023-05-08T07:21:18.819Z,19.70
2023-05-08T07:24:05.055Z,19.77
2023-05-08T07:26:51.722Z,19.78
2023-05-08T07:29:37.750Z,19.82
2023-05-08T07:32:24.203Z,19.84
2023-05-08T07:35:12.336Z,19.89
2023-05-08T07:37:58.748Z,19.94
2023-05-08T07:40:44.577Z,19.91
2023-05-08T07:43:30.541Z,20.02
2023-05-08T07:46:17.774Z,20.07
2023-05-08T07:49:04.020Z,20.11
2023-05-08T07:51:49.999Z,20.17
2023-05-08T07:54:36.024Z,20.19
2023-05-08T07:57:22.098Z,20.21
2023-05-08T08:00:10.824Z,20.28
2023-05-08T08:02:59.704Z,20.31
2023-05-08T08:05:45.763Z,20.39
2023-05-08T08:08:31.812Z,20.40
2023-05-08T08:11:17.845Z,20.48
2023-05-08T08:14:04.506Z,20.52
2023-05-08T08:16:50.671Z,20.57
2023-05-08T08:19:36.549Z,20.58
2023-05-08T08:22:23.409Z,20.62
2023-05-08T08:25:12.795Z,20.67
2023-05-08T08:27:59.179Z,20.69
2023-05-08T08:30:45.229Z,20.72
2023-05-08T08:33:30.902Z,20.76
2023-05-08T08:36:16.633Z,20.78
2023-05-08T08:39:02.581Z,20.86
2023-05-08T08:41:48.546Z,20.90
2023-05-08T08:44:34.925Z,20.94
2023-05-08T08:47:23.876Z,20.95
2023-05-08T08:50:12.864Z,20.99
2023-05-08T08:53:24.838Z,21.02
2023-05-08T08:56:12.109Z,21.01
2023-05-08T08:59:01.755Z,21.04
2023-05-08T09:01:49.162Z,21.06
2023-05-08T09:04:35.077Z,21.14
2023-05-08T09:07:21.114Z,21.18
2023-05-08T09:10:07.815Z,21.25
2023-05-08T09:12:54.167Z,21.26
2023-05-08T09:15:41.043Z,21.30
2023-05-08T09:18:27.156Z,21.34
2023-05-08T09:21:13.201Z,21.38
2023-05-08T09:24:00.865Z,21.46
2023-05-08T09:26:47.011Z,21.52
2023-05-08T09:29:32.675Z,21.58
2023-05-08T09:32:19.019Z,21.66
2023-05-08T09:35:06.566Z,21.69
2023-05-08T09:37:52.342Z,21.76
2023-05-08T09:40:38.232Z,21.84
2023-05-08T09:43:24.290Z,21.88
2023-05-08T09:46:19.374Z,21.98
2023-05-08T09:49:05.693Z,22.02
2023-05-08T09:51:53.989Z,22.11
2023-05-08T09:54:39.920Z,22.17
2023-05-08T09:57:27.034Z,22.29
2023-05-08T10:00:14.011Z,22.40
2023-05-08T10:03:01.431Z,22.50
2023-05-08T10:05:47.593Z,22.55
2023-05-08T10:08:33.479Z,22.68
2023-05-08T10:11:21.423Z,22.77
2023-05-08T10:14:08.334Z,22.85
2023-05-08T10:16:54.960Z,22.90
2023-05-08T10:19:46.320Z,22.99
2023-05-08T10:22:33.929Z,23.05
2023-05-08T10:25:23.399Z,23.09
2023-05-08T10:28:15.456Z,23.12
2023-05-08T10:31:03.911Z,23.19
2023-05-08T10:33:51.519Z,23.26
2023-05-08T10:36:37.802Z,23.27
2023-05-08T10:39:24.116Z,23.29
2023-05-08T10:42:11.404Z,23.30
2023-05-08T10:44:57.718Z,23.27
2023-05-08T10:48:11.798Z,23.28
2023-05-08T10:51:16.667Z,23.23
2023-05-08T10:54:08.342Z,23.19
2023-05-08T10:57:08.487Z,23.12
2023-05-08T10:59:54.611Z,23.01
2023-05-08T11:02:40.662Z,22.96
2023-05-08T11:05:28.737Z,22.84
2023-05-08T11:08:18.981Z,22.77
2023-05-08T11:11:10.553Z,22.68
2023-05-08T11:14:09.382Z,22.59
2023-05-08T11:16:55.461Z,22.50
2023-05-08T11:20:00.343Z,22.38
2023-05-08T11:22:49.559Z,22.29
2023-05-08T11:25:43.662Z,22.13
2023-05-08T11:28:34.401Z,22.03
2023-05-08T11:31:21.055Z,21.86
2023-05-08T11:34:43.323Z,21.70
2023-05-08T11:37:32.025Z,21.57
2023-05-08T11:40:50.510Z,21.48
2023-05-08T11:44:18.338Z,21.30
2023-05-08T11:47:04.450Z,20.95
2023-05-08T11:49:50.722Z,20.72
2023-05-08T11:52:38.108Z,20.46
2023-05-08T11:55:24.058Z,20.25
2023-05-08T11:58:13.602Z,20.10
2023-05-08T12:00:59.879Z,19.96
2023-05-08T12:03:46.527Z,19.86
2023-05-08T12:06:34.098Z,19.80
2023-05-08T12:09:20.999Z,19.75
2023-05-08T12:12:07.406Z,19.73
2023-05-08T12:14:53.550Z,19.70
2023-05-08T12:17:40.981Z,19.67
2023-05-08T12:20:27.138Z,19.67
2023-05-08T12:23:13.016Z,19.67
2023-05-08T12:26:00.169Z,19.69
2023-05-08T12:28:47.510Z,19.71
2023-05-08T12:31:36.939Z,19.66
2023-05-08T12:34:22.982Z,19.68
2023-05-08T12:37:09.224Z,19.70
2023-05-08T12:39:56.224Z,19.70
2023-05-08T12:42:51.762Z,19.76
2023-05-08T12:45:42.508Z,19.76
2023-05-08T12:48:28.940Z,19.81
2023-05-08T12:51:15.048Z,19.84
2023-05-08T12:54:01.270Z,19.86
2023-05-08T12:56:50.094Z,19.92
2023-05-08T12:59:35.852Z,19.96
2023-05-08T13:02:24.245Z,19.98
2023-05-08T13:05:10.157Z,20.05
2023-05-08T13:08:05.237Z,20.08
2023-05-08T13:10:55.554Z,20.10
2023-05-08T13:13:41.480Z,20.09
2023-05-08T13:16:27.620Z,20.06
2023-05-08T13:19:16.222Z,20.07
2023-05-08T13:22:02.390Z,20.06
2023-05-08T13:24:48.615Z,20.09
2023-05-08T13:27:37.971Z,20.09
2023-05-08T13:30:23.895Z,20.14
2023-05-08T13:33:10.132Z,20.19
2023-05-08T13:35:56.403Z,20.19
2023-05-08T13:38:42.468Z,20.24
2023-05-08T13:41:28.309Z,20.26
2023-05-08T13:44:14.499Z,20.27
2023-05-08T13:47:00.735Z,20.34
2023-05-08T13:49:47.397Z,20.37
2023-05-08T13:52:35.059Z,20.38
2023-05-08T13:55:22.865Z,20.41
2023-05-08T13:58:09.167Z,20.44
2023-05-08T14:00:55.389Z,20.46
2023-05-08T14:03:41.558Z,20.45
2023-05-08T14:06:27.561Z,20.49
2023-05-08T14:09:14.334Z,20.48
2023-05-08T14:12:00.379Z,20.45
2023-05-08T14:14:46.667Z,20.49
2023-05-08T14:17:33.054Z,20.50
2023-05-08T14:20:19.304Z,20.48
2023-05-08T14:23:05.455Z,20.50
2023-05-08T14:25:51.616Z,20.50
2023-05-08T14:28:37.490Z,20.53
2023-05-08T14:31:23.481Z,20.54
2023-05-08T14:34:18.180Z,20.55
2023-05-08T14:37:05.577Z,20.58
2023-05-08T14:39:54.234Z,20.59
2023-05-08T14:42:40.182Z,20.56
2023-05-08T14:45:26.046Z,20.55
2023-05-08T14:48:12.250Z,20.61
2023-05-08T14:50:58.503Z,20.62
2023-05-08T14:53:44.483Z,20.63
2023-05-08T14:56:40.443Z,20.64
2023-05-08T14:59:33.246Z,20.70
2023-05-08T15:02:20.756Z,20.74
2023-05-08T15:05:10.949Z,20.76
2023-05-08T15:08:05.201Z,20.81
2023-05-08T15:10:52.380Z,20.82
2023-05-08T15:13:38.333Z,20.85
2023-05-08T15:16:24.490Z,20.87
2023-05-08T15:19:10.439Z,20.89
2023-05-08T15:21:56.600Z,20.91
2023-05-08T15:24:42.279Z,20.89
2023-05-08T15:27:29.384Z,20.93
2023-05-08T15:30:15.567Z,20.94
2023-05-08T15:33:02.016Z,20.96
2023-05-08T15:35:48.213Z,20.99
2023-05-08T15:38:34.106Z,20.97
2023-05-08T15:41:19.866Z,20.99
2023-05-08T15:44:06.419Z,20.98
2023-05-08T15:46:52.482Z,20.96
2023-05-08T15:49:38.675Z,20.93
2023-05-08T15:52:24.647Z,20.95
2023-05-08T15:55:11.235Z,20.94
2023-05-08T15:57:57.916Z,20.92
2023-05-08T16:00:45.628Z,20.91
2023-05-08T16:03:32.642Z,20.94
2023-05-08T16:06:18.566Z,20.87
2023-05-08T16:09:04.955Z,20.85
2023-05-08T16:11:50.776Z,20.81
2023-05-08T16:14:36.968Z,20.78
2023-05-08T16:17:23.741Z,20.73
2023-05-08T16:20:12.927Z,20.66
2023-05-08T16:22:59.372Z,20.64
2023-05-08T16:25:45.532Z,20.61
2023-05-08T16:29:09.444Z,20.57
2023-05-08T16:32:02.612Z,20.56
2023-05-08T16:34:52.779Z,20.53
2023-05-08T16:37:39.107Z,20.52
2023-05-08T16:40:25.313Z,20.52
2023-05-08T16:43:11.774Z,20.47
2023-05-08T16:46:08.068Z,20.39
2023-05-08T16:48:54.080Z,20.38
2023-05-08T16:51:39.972Z,20.31
2023-05-08T16:54:26.590Z,20.29
2023-05-08T16:57:15.880Z,20.25
2023-05-08T17:00:01.783Z,20.22
2023-05-08T17:02:48.092Z,20.21
2023-05-08T17:05:34.418Z,20.18
2023-05-08T17:08:20.519Z,20.17
2023-05-08T17:11:06.680Z,20.15
2023-05-08T17:13:52.744Z,20.07
2023-05-08T17:16:38.907Z,20.07
2023-05-08T17:19:25.061Z,20.03
2023-05-08T17:22:11.868Z,20.02
2023-05-08T17:24:58.485Z,19.99
2023-05-08T17:27:44.574Z,19.92
2023-05-08T17:30:31.485Z,19.90
2023-05-08T17:33:18.121Z,19.86
2023-05-08T17:36:04.628Z,19.81
2023-05-08T17:38:52.144Z,19.77
2023-05-08T17:41:38.110Z,19.75
2023-05-08T17:44:24.099Z,19.73
2023-05-08T17:47:10.304Z,19.63
2023-05-08T17:49:56.439Z,19.65
2023-05-08T17:52:42.529Z,19.59
2023-05-08T17:55:30.572Z,19.55
2023-05-08T17:58:16.791Z,19.57
2023-05-08T18:01:03.079Z,19.51
2023-05-08T18:03:49.377Z,19.43
2023-05-08T18:06:35.454Z,19.41
2023-05-08T18:09:21.642Z,19.37
2023-05-08T18:12:08.854Z,19.30
2023-05-08T18:14:54.838Z,19.28
2023-05-08T18:17:41.115Z,19.30
2023-05-08T18:20:27.133Z,19.22
2023-05-08T18:23:12.905Z,19.22
2023-05-08T18:25:59.025Z,19.18
2023-05-08T18:28:45.497Z,19.11
2023-05-08T18:31:33.049Z,19.09
2023-05-08T18:34:19.284Z,19.04
2023-05-08T18:37:05.234Z,19.01
2023-05-08T18:39:51.403Z,19.07
2023-05-08T18:42:37.469Z,19.03
2023-05-08T18:45:23.660Z,19.04
2023-05-08T18:48:10.888Z,19.01
2023-05-08T18:50:58.767Z,19.02
2023-05-08T18:53:44.786Z,18.97
2023-05-08T18:56:30.926Z,18.95
2023-05-08T18:59:17.074Z,18.92
2023-05-08T19:02:07.234Z,18.95
2023-05-08T19:04:53.919Z,18.94
2023-05-08T19:07:41.866Z,18.90
2023-05-08T19:10:27.909Z,18.87
2023-05-08T19:13:14.196Z,18.83
2023-05-08T19:16:01.900Z,18.82
2023-05-08T19:18:47.813Z,18.78
2023-05-08T19:21:35.172Z,18.73
2023-05-08T19:24:26.452Z,18.67
2023-05-08T19:27:12.735Z,18.66
2023-05-08T19:29:58.903Z,18.58
2023-05-08T19:32:45.361Z,18.53
2023-05-08T19:35:31.719Z,18.49
2023-05-08T19:38:18.328Z,18.51
2023-05-08T19:41:04.400Z,18.42
2023-05-08T19:43:50.445Z,18.35
2023-05-08T19:46:37.373Z,18.42
2023-05-08T19:49:24.424Z,18.44
2023-05-08T19:52:10.281Z,18.36
2023-05-08T19:54:57.234Z,18.42
2023-05-08T19:57:43.301Z,18.36
2023-05-08T20:00:29.534Z,18.29
2023-05-08T20:03:15.878Z,18.25
2023-05-08T20:06:01.940Z,18.15
2023-05-08T20:08:48.209Z,18.12
2023-05-08T20:11:34.358Z,18.12
2023-05-08T20:14:20.974Z,18.05
2023-05-08T20:17:07.664Z,18.02
2023-05-08T20:19:54.161Z,17.98
2023-05-08T20:22:40.737Z,17.94
2023-05-08T20:25:27.449Z,17.91
2023-05-08T20:28:19.260Z,17.88
2023-05-08T20:31:05.827Z,17.82
2023-05-08T20:33:52.217Z,17.81
2023-05-08T20:36:38.570Z,17.76
2023-05-08T20:39:24.252Z,17.74
2023-05-08T20:42:10.206Z,17.76
2023-05-08T20:44:56.288Z,17.70
2023-05-08T20:47:42.422Z,17.65
2023-05-08T20:50:28.735Z,17.58
2023-05-08T20:53:14.971Z,17.57
2023-05-08T20:56:02.603Z,17.55
2023-05-08T20:58:49.613Z,17.52
2023-05-08T21:01:35.902Z,17.51
2023-05-08T21:04:22.465Z,17.52
2023-05-08T21:07:08.434Z,17.54
2023-05-08T21:09:54.784Z,17.48
2023-05-08T21:12:44.557Z,17.46
2023-05-08T21:15:30.627Z,17.46
2023-05-08T21:18:17.157Z,17.42
2023-05-08T21:21:03.226Z,17.47
2023-05-08T21:23:49.263Z,17.43
2023-05-08T21:26:36.438Z,17.43
2023-05-08T21:29:22.542Z,17.44
2023-05-08T21:32:10.303Z,17.42
2023-05-08T21:34:56.626Z,17.40
2023-05-08T21:37:43.001Z,17.41
2023-05-08T21:40:29.153Z,17.34
2023-05-08T21:43:14.986Z,17.41
2023-05-08T21:46:01.157Z,17.37
2023-05-08T21:48:48.445Z,17.39
2023-05-08T21:51:36.190Z,17.35
2023-05-08T21:54:24.289Z,17.34
2023-05-08T21:57:10.497Z,17.30
2023-05-08T21:59:56.739Z,17.27
2023-05-08T22:02:43.218Z,17.20
2023-05-08T22:05:30.368Z,17.23
2023-05-08T22:08:16.640Z,17.23
2023-05-08T22:11:02.801Z,17.24
2023-05-08T22:13:48.700Z,17.22
2023-05-08T22:16:35.153Z,17.21
2023-05-08T22:19:21.077Z,17.24
2023-05-08T22:22:07.275Z,17.21
2023-05-08T22:24:53.345Z,17.22
2023-05-08T22:27:39.357Z,17.22
2023-05-08T22:30:25.308Z,17.26
2023-05-08T22:33:11.692Z,17.25
2023-05-08T22:35:58.297Z,17.26
2023-05-08T22:38:44.828Z,17.26
2023-05-08T22:41:30.924Z,17.28
2023-05-08T22:44:17.139Z,17.27
2023-05-08T22:47:03.189Z,17.28
2023-05-08T22:49:49.807Z,17.24
2023-05-08T22:52:36.412Z,17.26
2023-05-08T22:55:22.675Z,17.24
2023-05-08T22:58:09.803Z,17.24
2023-05-08T23:00:56.151Z,17.20
2023-05-08T23:03:42.275Z,17.15
2023-05-08T23:06:28.459Z,17.17
2023-05-08T23:09:14.208Z,17.10
2023-05-08T23:12:00.103Z,17.17
2023-05-08T23:14:45.933Z,17.12
2023-05-08T23:17:31.910Z,17.15
2023-05-08T23:20:18.084Z,17.18
2023-05-08T23:23:04.359Z,17.17
2023-05-08T23:25:51.056Z,17.15
2023-05-08T23:28:37.476Z,17.11
2023-05-08T23:31:23.442Z,17.11
2023-05-08T23:34:09.788Z,17.10
2023-05-08T23:36:55.878Z,17.07
2023-05-08T23:39:41.818Z,17.07
2023-05-08T23:42:28.456Z,17.09
2023-05-08T23:45:14.975Z,17.08
2023-05-08T23:48:01.630Z,16.99
2023-05-08T23:50:48.242Z,17.03
2023-05-08T23:53:33.953Z,17.05
2023-05-08T23:56:20.157Z,17.05
2023-05-08T23:59:06.866Z,17.06
